Time;durP1;ratioP1;P1;durP2;ratioP2;P2;SDS_P1;SDS_P2;PMS_P1;PMS_P2;Temp;Humidity;BMP_temperature;BMP_pressure;BME280_temperature;BME280_humidity;BME280_pressure;Samples;Min_cycle;Max_cycle;Signal;HPM_P1;HPM_P2
2024/04/16 00:18:12;;;;;;;;;;;;;;;7.12;100.00;97022.03;5407646;26;19999;-77
2024/04/16 00:20:38;;;;;;;;;;;;;;;7.20;100.00;97012.03;5388640;26;19929;-76
2024/04/16 00:23:03;;;;;;;;;;;;;;;7.15;100.00;97013.25;5391928;26;19937;-78
2024/04/16 00:25:28;;;;;;;;;;;;;;;7.30;100.00;97018.31;5395791;26;19945;-77
2024/04/16 00:27:53;;;;;;;;;;;;;;;7.20;100.00;97006.88;5363770;26;19963;-77
2024/04/16 00:30:19;;;;;;;;;;;;;;;7.29;100.00;97000.34;5403405;26;20406;-77
2024/04/16 00:32:44;;;;;;;;;;;;;;;7.49;100.00;97013.72;5385492;26;20002;-78
2024/04/16 00:35:09;;;;;;;;;;;;;;;7.41;100.00;97015.13;5389321;26;20499;-78
2024/04/16 00:37:34;;;;;;;;;;;;;;;7.33;100.00;96992.28;5395773;26;19962;-76
2024/04/16 00:39:59;;;;;;;;;;;;;;;7.17;100.00;96990.69;5395417;26;19949;-77
2024/04/16 00:42:25;;;;;;;;;;;;;;;7.22;100.00;97002.44;5401145;26;19922;-80
2024/04/16 00:44:50;;;;;;;;;;;;;;;7.35;100.00;97005.16;5433097;26;19930;-82
2024/04/16 00:47:16;;;;;;;;;;;;;;;7.32;100.00;97000.97;5392642;26;19921;-80
2024/04/16 00:49:41;;;;;;;;;;;;;;;7.38;100.00;97005.78;5411657;26;19925;-81
2024/04/16 00:52:06;;;;;;;;;;;;;;;7.27;100.00;96991.81;5402964;26;20370;-77
2024/04/16 00:54:33;;;;;;;;;;;;;;;7.27;100.00;96992.66;5401050;26;20386;-79
2024/04/16 00:56:58;;;;;;;;;;;;;;;7.30;100.00;96976.94;5404191;26;20289;-78
2024/04/16 00:59:24;;;;;;;;;;;;;;;7.17;100.00;96976.00;5367797;26;20047;-77
2024/04/16 01:01:49;;;;;;;;;;;;;;;7.41;100.00;96997.03;5398710;26;19929;-76
2024/04/16 01:04:14;;;;;;;;;;;;;;;7.12;100.00;96988.38;5412113;26;19929;-77
2024/04/16 01:06:40;;;;;;;;;;;;;;;7.05;100.00;96976.75;5399991;26;19987;-77
2024/04/16 01:09:06;;;;;;;;;;;;;;;6.89;100.00;96944.91;5382528;26;19967;-77
2024/04/16 01:11:31;;;;;;;;;;;;;;;6.68;100.00;96956.50;5387285;26;19936;-77
2024/04/16 01:13:57;;;;;;;;;;;;;;;6.90;100.00;96962.09;5391413;26;20274;-78
2024/04/16 01:16:22;;;;;;;;;;;;;;;6.92;100.00;96970.63;5394242;26;19941;-78
2024/04/16 01:18:48;;;;;;;;;;;;;;;6.88;100.00;96994.16;5391885;26;20001;-77
2024/04/16 01:21:13;;;;;;;;;;;;;;;6.95;100.00;96991.13;5400975;26;19994;-77
2024/04/16 01:23:38;;;;;;;;;;;;;;;6.96;100.00;96969.50;5389383;26;19974;-79
2024/04/16 01:26:04;;;;;;;;;;;;;;;6.91;100.00;96953.44;5393888;26;19990;-78
2024/04/16 01:28:29;;;;;;;;;;;;;;;6.98;100.00;96939.22;5391943;26;19966;-77
2024/04/16 01:30:54;;;;;;;;;;;;;;;6.95;100.00;96934.22;5407283;26;19996;-77
2024/04/16 01:33:19;;;;;;;;;;;;;;;6.78;100.00;96944.75;5395012;26;19969;-77
2024/04/16 01:35:45;;;;;;;;;;;;;;;6.77;100.00;96929.31;5407903;26;19929;-79
2024/04/16 01:38:10;;;;;;;;;;;;;;;7.06;100.00;96933.59;5398077;26;20342;-77
2024/04/16 01:40:35;;;;;;;;;;;;;;;6.72;100.00;96952.00;5396543;26;20027;-77
2024/04/16 01:43:00;;;;;;;;;;;;;;;6.86;100.00;96960.63;5395652;26;19929;-77
2024/04/16 01:45:25;;;;;;;;;;;;;;;6.94;100.00;96942.06;5391178;26;20105;-78
2024/04/16 01:47:51;;;;;;;;;;;;;;;6.88;100.00;96922.56;5393982;26;20437;-78
2024/04/16 01:50:16;;;;;;;;;;;;;;;6.53;100.00;96900.53;5399800;26;20269;-77
2024/04/16 01:52:41;;;;;;;;;;;;;;;6.69;100.00;96929.75;5393190;26;19981;-79
2024/04/16 01:55:06;;;;;;;;;;;;;;;7.01;100.00;96935.59;5395933;26;19976;-78
2024/04/16 01:57:31;;;;;;;;;;;;;;;6.89;100.00;96924.22;5396453;26;19969;-77
2024/04/16 01:59:57;;;;;;;;;;;;;;;6.54;100.00;96909.97;5401185;26;19965;-77
2024/04/16 02:02:22;;;;;;;;;;;;;;;6.52;100.00;96911.81;5405977;26;19974;-79
2024/04/16 02:04:47;;;;;;;;;;;;;;;6.68;100.00;96915.16;5398116;26;19960;-78
2024/04/16 02:07:12;;;;;;;;;;;;;;;6.77;100.00;96904.25;5382934;26;20324;-77
2024/04/16 02:09:38;;;;;;;;;;;;;;;6.66;100.00;96891.16;5384425;26;20309;-77
2024/04/16 02:12:03;;;;;;;;;;;;;;;6.81;100.00;96916.09;5394054;26;20383;-78
2024/04/16 02:14:28;;;;;;;;;;;;;;;6.60;100.00;96932.88;5408242;26;20416;-76
2024/04/16 02:16:56;;;;;;;;;;;;;;;6.83;100.00;96923.78;5394594;26;19968;-78
2024/04/16 02:19:21;;;;;;;;;;;;;;;6.61;100.00;96918.19;5410053;26;20002;-77
2024/04/16 02:21:46;;;;;;;;;;;;;;;6.70;100.00;96908.13;5393055;26;19936;-77
2024/04/16 02:24:11;;;;;;;;;;;;;;;6.46;100.00;96885.47;5360627;26;20396;-76
2024/04/16 02:26:37;;;;;;;;;;;;;;;6.69;100.00;96880.63;5392122;26;19964;-77
2024/04/16 02:29:02;;;;;;;;;;;;;;;6.36;100.00;96902.44;5394364;26;19963;-78
2024/04/16 02:31:30;;;;;;;;;;;;;;;6.66;100.00;96906.66;5394112;26;19937;-77
2024/04/16 02:33:55;;;;;;;;;;;;;;;6.32;100.00;96896.63;5402476;26;19936;-77
2024/04/16 02:36:21;;;;;;;;;;;;;;;6.14;100.00;96887.31;5386312;26;20359;-78
2024/04/16 02:38:46;;;;;;;;;;;;;;;6.42;100.00;96891.75;5392695;26;19929;-77
2024/04/16 02:41:11;;;;;;;;;;;;;;;6.33;100.00;96903.44;5392653;26;20769;-77
2024/04/16 02:43:36;;;;;;;;;;;;;;;6.31;100.00;96913.03;5396927;26;20411;-78
2024/04/16 02:46:02;;;;;;;;;;;;;;;6.33;100.00;96908.59;5407325;26;19928;-78
2024/04/16 02:48:27;;;;;;;;;;;;;;;6.44;100.00;96916.59;5406051;26;19929;-78
2024/04/16 02:50:53;;;;;;;;;;;;;;;6.57;100.00;96914.13;5352797;26;19962;-76
2024/04/16 02:53:19;;;;;;;;;;;;;;;6.56;100.00;96910.69;5383449;26;20071;-77
2024/04/16 02:55:44;;;;;;;;;;;;;;;6.56;100.00;96908.09;5410280;26;20379;-77
2024/04/16 02:58:09;;;;;;;;;;;;;;;6.72;100.00;96927.00;5390404;26;19942;-78
2024/04/16 03:00:37;;;;;;;;;;;;;;;6.65;100.00;96923.09;5408875;26;19929;-76
2024/04/16 03:03:03;;;;;;;;;;;;;;;6.68;100.00;96915.16;5382105;26;20316;-76
2024/04/16 03:05:28;;;;;;;;;;;;;;;6.66;100.00;96900.66;5362007;26;19962;-77
2024/04/16 03:07:53;;;;;;;;;;;;;;;6.71;100.00;96902.06;5380661;26;19937;-78
2024/04/16 03:10:18;;;;;;;;;;;;;;;6.69;100.00;96909.06;5409388;26;19974;-77
2024/04/16 03:12:44;;;;;;;;;;;;;;;6.72;100.00;96919.25;5393989;26;19988;-77
2024/04/16 03:15:09;;;;;;;;;;;;;;;6.72;100.00;96906.31;5380315;26;20043;-77
2024/04/16 03:17:34;;;;;;;;;;;;;;;6.90;100.00;96915.56;5394084;26;20023;-77
2024/04/16 03:19:59;;;;;;;;;;;;;;;7.01;100.00;96922.66;5403258;26;19978;-77
2024/04/16 03:22:25;;;;;;;;;;;;;;;6.76;100.00;96918.13;5399815;26;20047;-80
2024/04/16 03:24:50;;;;;;;;;;;;;;;6.65;100.00;96920.50;5395899;26;20082;-78
2024/04/16 03:27:16;;;;;;;;;;;;;;;6.82;100.00;96928.09;5399394;26;19967;-78
2024/04/16 03:29:41;;;;;;;;;;;;;;;6.89;100.00;96934.56;5404612;26;19965;-76
2024/04/16 03:32:06;;;;;;;;;;;;;;;6.83;100.00;96924.59;5407056;26;19961;-77
2024/04/16 03:34:31;;;;;;;;;;;;;;;6.74;100.00;96930.31;5378019;26;19967;-77
2024/04/16 03:36:58;;;;;;;;;;;;;;;6.58;100.00;96919.22;5394350;26;19970;-77
2024/04/16 03:39:23;;;;;;;;;;;;;;;6.64;100.00;96924.03;5400700;26;20055;-77
2024/04/16 03:41:48;;;;;;;;;;;;;;;6.67;100.00;96913.50;5387729;26;20300;-77
2024/04/16 03:44:14;;;;;;;;;;;;;;;6.52;100.00;96916.97;5395679;26;19957;-77
2024/04/16 03:46:39;;;;;;;;;;;;;;;6.60;100.00;96922.53;5396645;26;19937;-77
2024/04/16 03:49:04;;;;;;;;;;;;;;;6.63;100.00;96926.69;5403998;26;19988;-78
2024/04/16 03:51:29;;;;;;;;;;;;;;;6.44;100.00;96919.19;5390612;26;19936;-77
2024/04/16 03:53:54;;;;;;;;;;;;;;;6.46;100.00;96929.41;5397831;26;20034;-77
2024/04/16 03:56:20;;;;;;;;;;;;;;;6.44;100.00;96937.25;5399360;26;20062;-81
2024/04/16 04:01:30;;;;;;;;;;;;;;;6.53;100.00;96936.72;5390075;26;19988;-77
2024/04/16 04:03:56;;;;;;;;;;;;;;;6.53;100.00;96931.56;5393813;26;19930;-77
2024/04/16 04:06:21;;;;;;;;;;;;;;;6.74;100.00;96926.88;5389596;26;20058;-77
2024/04/16 04:08:46;;;;;;;;;;;;;;;6.43;100.00;96925.25;5389765;26;20003;-78
2024/04/16 04:11:11;;;;;;;;;;;;;;;6.44;100.00;96920.91;5376790;26;20049;-77
2024/04/16 04:13:37;;;;;;;;;;;;;;;6.42;100.00;96921.00;5382035;26;19966;-78
2024/04/16 04:16:02;;;;;;;;;;;;;;;6.34;100.00;96928.34;5401080;26;20010;-77
2024/04/16 04:18:27;;;;;;;;;;;;;;;6.28;100.00;96923.53;5410781;26;20078;-77
2024/04/16 04:20:52;;;;;;;;;;;;;;;6.30;100.00;96928.63;5374060;26;20002;-77
2024/04/16 04:23:18;;;;;;;;;;;;;;;6.37;100.00;96924.78;5390261;26;20671;-77
2024/04/16 04:25:43;;;;;;;;;;;;;;;6.29;100.00;96922.59;5392335;26;20441;-77
2024/04/16 04:28:08;;;;;;;;;;;;;;;6.38;100.00;96932.44;5387690;26;19930;-77
2024/04/16 04:30:34;;;;;;;;;;;;;;;6.45;100.00;96940.66;5360416;26;19983;-77
2024/04/16 04:32:59;;;;;;;;;;;;;;;6.63;100.00;96942.19;5400407;26;20488;-77
2024/04/16 04:35:25;;;;;;;;;;;;;;;6.43;100.00;96940.75;5402414;26;19975;-77
2024/04/16 04:37:50;;;;;;;;;;;;;;;6.64;100.00;96939.53;5402288;26;19999;-77
2024/04/16 04:40:15;;;;;;;;;;;;;;;6.43;100.00;96938.16;5401247;26;19949;-78
2024/04/16 04:42:41;;;;;;;;;;;;;;;6.54;100.00;96937.53;5399889;26;20359;-77
2024/04/16 04:45:06;;;;;;;;;;;;;;;6.60;100.00;96938.03;5398270;26;19929;-77
2024/04/16 04:47:31;;;;;;;;;;;;;;;6.48;100.00;96941.31;5401886;26;19999;-77
2024/04/16 04:49:56;;;;;;;;;;;;;;;6.58;100.00;96939.88;5405225;26;20007;-78
2024/04/16 04:52:22;;;;;;;;;;;;;;;6.69;100.00;96949.59;5372082;26;19961;-78
2024/04/16 04:54:47;;;;;;;;;;;;;;;6.54;100.00;96940.97;5376234;26;20152;-77
2024/04/16 04:57:13;;;;;;;;;;;;;;;6.69;100.00;96953.00;5398346;26;20411;-76
2024/04/16 04:59:38;;;;;;;;;;;;;;;6.61;100.00;96950.03;5399482;26;19966;-77
2024/04/16 05:02:03;;;;;;;;;;;;;;;6.41;100.00;96952.91;5384905;26;19964;-78
2024/04/16 05:04:28;;;;;;;;;;;;;;;6.61;100.00;96955.19;5391428;26;19936;-78
2024/04/16 05:06:54;;;;;;;;;;;;;;;6.83;100.00;96959.97;5401544;26;19968;-78
2024/04/16 05:09:19;;;;;;;;;;;;;;;6.56;100.00;96959.78;5393061;26;19977;-76
2024/04/16 05:11:44;;;;;;;;;;;;;;;6.72;100.00;96962.34;5400585;26;19941;-78
2024/04/16 05:16:37;;;;;;;;;;;;;;;6.76;100.00;96972.41;5395638;26;20002;-52
2024/04/16 05:19:03;;;;;;;;;;;;;;;6.68;100.00;96977.19;5398787;26;20296;-52
2024/04/16 05:21:28;;;;;;;;;;;;;;;6.56;100.00;96979.66;5406402;26;19961;-51
2024/04/16 05:23:53;;;;;;;;;;;;;;;6.83;100.00;96976.31;5406443;26;20462;-52
2024/04/16 05:26:21;;;;;;;;;;;;;;;6.84;100.00;96974.56;5405713;26;19964;-52
2024/04/16 05:28:47;;;;;;;;;;;;;;;6.86;100.00;96981.31;5409001;26;19999;-52
2024/04/16 05:31:12;;;;;;;;;;;;;;;6.86;100.00;96975.28;5409614;26;19981;-52
2024/04/16 05:33:37;;;;;;;;;;;;;;;6.86;100.00;96978.72;5409727;26;20009;-52
2024/04/16 05:36:03;;;;;;;;;;;;;;;7.12;100.00;96975.47;5402676;26;19962;-51
2024/04/16 05:38:28;;;;;;;;;;;;;;;7.31;99.59;96988.13;5410451;26;20263;-52
2024/04/16 05:40:53;;;;;;;;;;;;;;;7.00;99.74;96983.94;5399339;26;19980;-51
2024/04/16 05:43:18;;;;;;;;;;;;;;;7.28;98.98;96983.97;5405485;26;19961;-52
2024/04/16 05:45:44;;;;;;;;;;;;;;;7.35;98.48;96985.25;5395502;26;19969;-53
2024/04/16 05:48:09;;;;;;;;;;;;;;;7.31;97.85;96983.78;5402341;26;19985;-51
2024/04/16 05:50:34;;;;;;;;;;;;;;;7.81;96.75;96978.97;5406328;26;19969;-52
2024/04/16 05:52:59;;;;;;;;;;;;;;;7.97;93.71;96979.69;5412347;26;19997;-51
2024/04/16 05:55:26;;;;;;;;;;;;;;;8.11;93.50;96977.06;5380411;26;20014;-50
2024/04/16 05:57:52;;;;;;;;;;;;;;;7.98;93.50;96975.31;5399440;26;20008;-51
2024/04/16 06:00:17;;;;;;;;;;;;;;;7.69;93.46;96990.06;5403273;26;19995;-51
2024/04/16 06:02:42;;;;;;;;;;;;;;;7.82;93.13;96987.56;5387147;26;19982;-50
2024/04/16 06:05:08;;;;;;;;;;;;;;;7.79;92.21;96980.81;5407255;26;19938;-51
2024/04/16 06:07:33;;;;;;;;;;;;;;;7.69;92.58;96978.88;5366078;26;20011;-53
2024/04/16 06:09:58;;;;;;;;;;;;;;;8.07;92.23;96980.75;5392920;26;19999;-52
2024/04/16 06:12:23;;;;;;;;;;;;;;;8.03;90.55;96974.09;5398127;26;19930;-52
2024/04/16 06:14:48;;;;;;;;;;;;;;;8.01;89.38;96985.50;5403951;26;19974;-52
2024/04/16 06:17:14;;;;;;;;;;;;;;;8.46;88.57;96983.44;5406708;26;20326;-52
2024/04/16 06:19:43;;;;;;;;;;;;;;;7.87;89.26;96983.75;5401035;26;19965;-53
2024/04/16 06:22:08;;;;;;;;;;;;;;;8.17;88.36;96971.50;5398904;26;19929;-53
2024/04/16 06:24:34;;;;;;;;;;;;;;;8.54;87.58;96976.00;5380493;26;20064;-53
2024/04/16 06:27:00;;;;;;;;;;;;;;;9.02;86.61;96982.34;5406686;26;20370;-51
2024/04/16 06:29:26;;;;;;;;;;;;;;;8.85;86.68;96986.06;5400724;26;19945;-51
2024/04/16 06:31:51;;;;;;;;;;;;;;;10.95;84.52;96976.28;5410638;26;20017;-51
2024/04/16 06:34:16;;;;;;;;;;;;;;;10.52;76.58;96971.75;5371981;26;19936;-51
2024/04/16 06:36:42;;;;;;;;;;;;;;;10.96;76.28;96975.34;5394433;26;20029;-52
2024/04/16 06:39:07;;;;;;;;;;;;;;;10.10;76.63;96969.63;5369871;26;19936;-52
2024/04/16 06:41:33;;;;;;;;;;;;;;;10.71;77.95;96970.31;5399592;26;19969;-53
2024/04/16 06:43:58;;;;;;;;;;;;;;;11.22;71.35;96974.22;5371441;26;19944;-51
2024/04/16 06:46:23;;;;;;;;;;;;;;;13.02;70.95;96970.25;5401765;26;20213;-51
2024/04/16 06:48:49;;;;;;;;;;;;;;;15.84;61.93;96960.69;5411933;26;20269;-51
2024/04/16 06:51:15;;;;;;;;;;;;;;;15.16;59.40;96968.81;5356389;26;20296;-54
2024/04/16 06:53:40;;;;;;;;;;;;;;;14.86;58.78;96961.09;5408624;26;20051;-52
2024/04/16 06:56:06;;;;;;;;;;;;;;;14.96;58.87;96956.69;5393542;26;20328;-53
2024/04/16 06:58:32;;;;;;;;;;;;;;;14.34;58.90;96953.56;5402830;26;20019;-54
2024/04/16 07:00:57;;;;;;;;;;;;;;;13.37;58.86;96955.09;5399522;26;19930;-55
2024/04/16 07:03:23;;;;;;;;;;;;;;;13.58;61.41;96948.06;5410761;26;19929;-52
2024/04/16 07:05:48;;;;;;;;;;;;;;;11.56;64.09;96942.09;5406439;26;19994;-50
2024/04/16 07:08:13;;;;;;;;;;;;;;;13.03;63.17;96951.84;5379533;26;19929;-50
2024/04/16 07:10:39;;;;;;;;;;;;;;;14.81;60.60;96952.81;5390650;26;19930;-51
2024/04/16 07:13:04;;;;;;;;;;;;;;;13.65;60.94;96955.25;5387097;26;19981;-53
2024/04/16 07:15:30;;;;;;;;;;;;;;;13.02;61.26;96949.34;5411487;26;19963;-51
2024/04/16 07:17:55;;;;;;;;;;;;;;;12.65;62.69;96950.69;5402988;26;19999;-51
2024/04/16 07:20:20;;;;;;;;;;;;;;;12.30;63.11;96939.66;5399431;26;19980;-52
2024/04/16 07:22:46;;;;;;;;;;;;;;;13.28;60.83;96948.00;5401888;26;20042;-52
2024/04/16 07:25:12;;;;;;;;;;;;;;;12.21;62.41;96942.97;5405304;26;20272;-52
2024/04/16 07:27:37;;;;;;;;;;;;;;;11.93;63.31;96948.72;5395339;26;19974;-52
2024/04/16 07:30:02;;;;;;;;;;;;;;;11.91;63.99;96948.03;5402793;26;20379;-52
2024/04/16 07:32:29;;;;;;;;;;;;;;;11.23;63.11;96936.84;5409151;26;20453;-51
2024/04/16 07:34:54;;;;;;;;;;;;;;;12.14;61.02;96944.44;5395266;26;19985;-51
2024/04/16 07:37:19;;;;;;;;;;;;;;;13.26;57.68;96937.72;5386802;26;20278;-53
2024/04/16 07:39:47;;;;;;;;;;;;;;;15.52;53.34;96945.31;5389749;26;19968;-52
2024/04/16 07:42:13;;;;;;;;;;;;;;;12.92;55.57;96927.53;5393473;26;19987;-51
2024/04/16 07:44:38;;;;;;;;;;;;;;;12.54;54.85;96932.44;5392022;26;19930;-51
2024/04/16 07:47:04;;;;;;;;;;;;;;;12.57;57.40;96948.69;5392908;26;19963;-52
2024/04/16 07:49:29;;;;;;;;;;;;;;;19.92;47.16;96937.47;5399271;26;19962;-52
2024/04/16 07:51:54;;;;;;;;;;;;;;;20.82;42.70;96938.56;5405458;26;19964;-51
2024/04/16 07:54:19;;;;;;;;;;;;;;;21.22;40.66;96934.81;5411912;26;19936;-51
2024/04/16 07:56:45;;;;;;;;;;;;;;;21.83;38.95;96935.44;5401030;26;20004;-52
2024/04/16 07:59:10;;;;;;;;;;;;;;;19.67;42.04;96942.00;5403452;26;19999;-53
2024/04/16 08:01:35;;;;;;;;;;;;;;;16.99;43.68;96923.88;5401394;26;19944;-52
2024/04/16 08:04:00;;;;;;;;;;;;;;;16.00;43.76;96908.38;5396133;26;19929;-51
2024/04/16 08:06:26;;;;;;;;;;;;;;;18.09;44.55;96918.69;5387671;26;19941;-53
2024/04/16 08:08:51;;;;;;;;;;;;;;;17.75;43.40;96915.25;5381216;26;19983;-51
2024/04/16 08:11:16;;;;;;;;;;;;;;;14.40;48.67;96916.38;5402017;26;19967;-51
2024/04/16 08:13:42;;;;;;;;;;;;;;;14.47;49.58;96918.34;5359519;26;19929;-51
2024/04/16 08:16:07;;;;;;;;;;;;;;;19.43;44.56;96923.53;5387282;26;20341;-51
2024/04/16 08:18:32;;;;;;;;;;;;;;;17.96;42.79;96907.78;5399024;26;20319;-51
2024/04/16 08:20:58;;;;;;;;;;;;;;;13.14;49.51;96896.94;5404664;26;19967;-51
2024/04/16 08:23:23;;;;;;;;;;;;;;;12.43;52.22;96895.97;5413623;26;19970;-51
2024/04/16 08:26:17;;;;;;;;;;;;;;;13.62;51.75;96891.91;5394739;26;19953;-50
2024/04/16 08:28:42;;;;;;;;;;;;;;;15.82;48.88;96873.41;5383453;26;19964;-51
2024/04/16 08:31:08;;;;;;;;;;;;;;;13.63;49.73;96888.38;5404087;26;19995;-50
2024/04/16 08:33:33;;;;;;;;;;;;;;;13.29;51.13;96902.66;5413427;26;19994;-50
2024/04/16 08:35:58;;;;;;;;;;;;;;;16.98;48.46;96892.50;5387711;26;19988;-50
2024/04/16 08:38:23;;;;;;;;;;;;;;;22.02;39.55;96887.19;5387044;26;20240;-52
2024/04/16 08:40:49;;;;;;;;;;;;;;;22.83;37.30;96890.44;5404374;26;20309;-52
2024/04/16 08:43:14;;;;;;;;;;;;;;;21.69;39.09;96882.44;5397074;26;20336;-51
2024/04/16 08:45:43;;;;;;;;;;;;;;;24.47;35.44;96884.25;5389978;26;19938;-51
2024/04/16 08:48:10;;;;;;;;;;;;;;;25.59;35.15;96896.78;5387347;26;19968;-52
2024/04/16 08:50:36;;;;;;;;;;;;;;;24.82;34.24;96867.22;5390000;26;20414;-52
2024/04/16 08:53:02;;;;;;;;;;;;;;;17.56;40.36;96878.63;5399026;26;19929;-52
2024/04/16 08:55:29;;;;;;;;;;;;;;;23.04;36.97;96893.06;5399633;26;19990;-50
2024/04/16 08:57:54;;;;;;;;;;;;;;;20.52;37.42;96885.72;5369234;26;20212;-51
2024/04/16 09:00:20;;;;;;;;;;;;;;;17.49;43.65;96877.59;5397791;26;19972;-51
2024/04/16 09:02:45;;;;;;;;;;;;;;;15.95;45.21;96876.53;5400701;26;20059;-50
2024/04/16 09:05:10;;;;;;;;;;;;;;;15.18;46.26;96888.22;5398593;26;19961;-51
2024/04/16 09:07:37;;;;;;;;;;;;;;;14.93;48.23;96889.66;5409782;26;19929;-51
2024/04/16 09:10:18;;;;;;;;;;;;;;;17.34;45.47;96883.56;5397899;26;19960;-51
2024/04/16 09:12:43;;;;;;;;;;;;;;;18.25;43.61;96879.22;5393543;26;19971;-51
2024/04/16 09:15:09;;;;;;;;;;;;;;;18.53;43.33;96875.34;5391762;26;19988;-53
2024/04/16 09:17:34;;;;;;;;;;;;;;;18.08;44.16;96880.19;5406978;26;19929;-51
2024/04/16 09:20:00;;;;;;;;;;;;;;;16.98;44.47;96881.16;5402025;26;20168;-53
2024/04/16 09:22:25;;;;;;;;;;;;;;;18.78;44.08;96878.88;5390915;26;20328;-52
2024/04/16 09:24:51;;;;;;;;;;;;;;;18.45;44.50;96885.88;5393346;26;19937;-53
2024/04/16 09:27:16;;;;;;;;;;;;;;;16.09;46.08;96873.41;5395325;26;19987;-50
2024/04/16 09:29:41;;;;;;;;;;;;;;;15.34;47.12;96891.09;5393337;26;19929;-52
2024/04/16 09:32:06;;;;;;;;;;;;;;;15.68;47.24;96882.56;5403285;26;19964;-50
2024/04/16 09:34:32;;;;;;;;;;;;;;;15.89;46.62;96883.16;5403538;26;19963;-51
2024/04/16 09:36:59;;;;;;;;;;;;;;;17.37;44.36;96881.47;5394391;26;20312;-53
2024/04/16 09:39:25;;;;;;;;;;;;;;;18.16;44.14;96877.56;5375653;26;19977;-51
2024/04/16 09:41:52;;;;;;;;;;;;;;;15.07;46.94;96872.66;5405128;26;19990;-50
2024/04/16 09:44:18;;;;;;;;;;;;;;;14.73;49.32;96869.69;5398003;26;19938;-51
2024/04/16 09:46:44;;;;;;;;;;;;;;;14.59;50.21;96871.91;5393443;26;20347;-51
2024/04/16 09:49:12;;;;;;;;;;;;;;;15.77;49.70;96880.88;5398206;26;19936;-50
2024/04/16 09:51:38;;;;;;;;;;;;;;;14.90;50.44;96873.41;5408274;26;19933;-52
2024/04/16 09:54:05;;;;;;;;;;;;;;;14.54;51.00;96861.84;5401987;26;20026;-51
2024/04/16 09:56:33;;;;;;;;;;;;;;;14.68;52.29;96868.44;5411180;26;19936;-52
2024/04/16 09:58:59;;;;;;;;;;;;;;;13.63;52.61;96857.81;5404758;26;19999;-52
2024/04/16 10:01:25;;;;;;;;;;;;;;;14.07;52.37;96867.00;5364537;26;19964;-50
2024/04/16 10:03:51;;;;;;;;;;;;;;;13.77;52.31;96865.28;5400591;26;19966;-50
2024/04/16 10:06:16;;;;;;;;;;;;;;;13.28;53.60;96872.25;5396577;26;20312;-52
2024/04/16 10:08:41;;;;;;;;;;;;;;;13.73;53.57;96863.06;5414585;26;19971;-51
2024/04/16 10:11:07;;;;;;;;;;;;;;;13.98;53.67;96865.19;5390257;26;20271;-50
2024/04/16 10:13:33;;;;;;;;;;;;;;;14.19;53.51;96860.72;5405375;26;19991;-52
2024/04/16 10:15:58;;;;;;;;;;;;;;;15.49;52.06;96855.63;5402655;26;21489;-52
2024/04/16 10:18:24;;;;;;;;;;;;;;;15.17;52.14;96866.44;5367750;26;20027;-53
2024/04/16 10:20:51;;;;;;;;;;;;;;;14.40;52.33;96856.19;5404306;26;19929;-51
2024/04/16 10:23:18;;;;;;;;;;;;;;;13.91;53.53;96845.78;5405940;26;19933;-53
2024/04/16 10:25:51;;;;;;;;;;;;;;;13.83;52.86;96856.09;5397327;26;19964;-51
2024/04/16 10:28:23;;;;;;;;;;;;;;;13.62;52.96;96855.31;5365569;26;19963;-50
2024/04/16 10:30:57;;;;;;;;;;;;;;;13.57;53.95;96857.53;5361752;26;19960;-50
2024/04/16 10:33:25;;;;;;;;;;;;;;;13.21;55.34;96860.66;5401068;26;20326;-53
2024/04/16 10:35:52;;;;;;;;;;;;;;;13.20;55.25;96848.56;5389643;26;19983;-52
2024/04/16 10:38:18;;;;;;;;;;;;;;;13.37;54.82;96846.16;5390332;26;19938;-52
2024/04/16 10:40:53;;;;;;;;;;;;;;;13.37;55.70;96850.56;5393394;26;19937;-51
2024/04/16 10:43:21;;;;;;;;;;;;;;;13.35;55.21;96852.47;5396287;26;19963;-51
2024/04/16 10:45:47;;;;;;;;;;;;;;;13.25;55.28;96852.41;5410557;26;20386;-51
2024/04/16 10:48:13;;;;;;;;;;;;;;;12.87;54.65;96846.13;5389847;26;19957;-52
2024/04/16 10:50:38;;;;;;;;;;;;;;;13.23;55.11;96843.09;5393673;26;19953;-52
2024/04/16 10:53:10;;;;;;;;;;;;;;;14.01;54.16;96847.44;5390424;26;19987;-51
2024/04/16 10:55:35;;;;;;;;;;;;;;;14.56;53.18;96841.56;5361698;26;19929;-51
2024/04/16 10:58:00;;;;;;;;;;;;;;;15.23;52.17;96838.84;5413811;26;19972;-51
2024/04/16 11:00:26;;;;;;;;;;;;;;;15.28;51.44;96831.34;5405456;26;19986;-52
2024/04/16 11:02:51;;;;;;;;;;;;;;;15.30;51.17;96824.19;5399165;26;19929;-52
2024/04/16 11:05:21;;;;;;;;;;;;;;;15.43;50.31;96822.09;5404407;26;19989;-52
2024/04/16 11:07:46;;;;;;;;;;;;;;;15.29;51.06;96825.97;5402911;26;19929;-50
2024/04/16 11:10:12;;;;;;;;;;;;;;;14.99;52.35;96825.38;5411989;26;19957;-52
2024/04/16 11:12:37;;;;;;;;;;;;;;;15.42;51.20;96823.88;5405566;26;20305;-51
2024/04/16 11:15:03;;;;;;;;;;;;;;;14.39;52.89;96826.56;5404092;26;20052;-51
2024/04/16 11:17:28;;;;;;;;;;;;;;;15.08;53.46;96832.38;5409853;26;20044;-50
2024/04/16 11:19:54;;;;;;;;;;;;;;;15.59;52.71;96845.91;5403248;26;20036;-52
2024/04/16 11:22:20;;;;;;;;;;;;;;;15.01;51.86;96833.91;5414567;26;19990;-51
2024/04/16 11:24:45;;;;;;;;;;;;;;;17.13;50.31;96854.97;5407379;26;19963;-51
2024/04/16 11:27:11;;;;;;;;;;;;;;;16.48;49.21;96836.22;5391927;26;19960;-52
2024/04/16 11:29:44;;;;;;;;;;;;;;;15.46;51.33;96835.75;5393007;26;19969;-51
2024/04/16 11:32:09;;;;;;;;;;;;;;;14.81;52.44;96837.53;5388700;26;19949;-52
2024/04/16 11:34:35;;;;;;;;;;;;;;;16.73;50.44;96839.88;5393197;26;20335;-51
2024/04/16 11:37:00;;;;;;;;;;;;;;;15.94;51.17;96838.09;5405188;26;19962;-51
2024/04/16 11:39:28;;;;;;;;;;;;;;;15.19;51.86;96845.31;5395654;26;19996;-51
2024/04/16 11:41:53;;;;;;;;;;;;;;;16.19;50.71;96824.25;5394846;26;19940;-51
2024/04/16 11:44:19;;;;;;;;;;;;;;;15.20;51.58;96841.72;5406222;26;19958;-51
2024/04/16 11:46:44;;;;;;;;;;;;;;;14.97;52.34;96858.78;5410464;26;20350;-53
2024/04/16 11:49:09;;;;;;;;;;;;;;;14.50;52.86;96860.44;5410575;26;20027;-52
2024/04/16 11:51:35;;;;;;;;;;;;;;;14.66;52.82;96855.50;5396250;26;19936;-52
2024/04/16 11:54:00;;;;;;;;;;;;;;;14.55;53.16;96853.03;5391818;26;20087;-51
2024/04/16 11:56:25;;;;;;;;;;;;;;;14.40;53.81;96837.84;5399013;26;20279;-52
2024/04/16 11:58:50;;;;;;;;;;;;;;;14.76;54.34;96855.50;5406809;26;20377;-51
2024/04/16 12:01:15;;;;;;;;;;;;;;;14.99;53.64;96841.09;5396470;26;20391;-52
2024/04/16 12:03:41;;;;;;;;;;;;;;;14.32;54.12;96861.28;5402309;26;20326;-51
2024/04/16 12:06:06;;;;;;;;;;;;;;;13.82;54.68;96842.16;5401911;26;19936;-51
2024/04/16 12:08:31;;;;;;;;;;;;;;;14.03;54.86;96852.56;5398955;26;19961;-51
2024/04/16 12:10:58;;;;;;;;;;;;;;;13.83;55.44;96849.06;5380587;26;19969;-51
2024/04/16 12:13:23;;;;;;;;;;;;;;;14.63;53.98;96853.16;5406274;26;19936;-52
2024/04/16 12:15:48;;;;;;;;;;;;;;;14.36;54.00;96847.78;5406574;26;19970;-51
2024/04/16 12:18:14;;;;;;;;;;;;;;;14.05;54.15;96854.06;5410435;26;19929;-51
2024/04/16 12:20:39;;;;;;;;;;;;;;;14.40;54.14;96841.31;5403907;26;20317;-50
2024/04/16 12:23:04;;;;;;;;;;;;;;;14.69;53.72;96852.59;5408400;26;20316;-52
2024/04/16 12:25:29;;;;;;;;;;;;;;;14.31;53.05;96838.69;5402934;26;19963;-52
2024/04/16 12:27:54;;;;;;;;;;;;;;;14.24;53.59;96832.34;5405338;26;19965;-52
2024/04/16 12:30:20;;;;;;;;;;;;;;;14.07;54.02;96840.84;5406123;26;19929;-52
2024/04/16 12:32:45;;;;;;;;;;;;;;;13.75;53.56;96816.69;5407900;26;19968;-52
2024/04/16 12:35:10;;;;;;;;;;;;;;;13.52;53.54;96820.50;5408799;26;19990;-52
2024/04/16 12:37:35;;;;;;;;;;;;;;;13.61;53.97;96832.75;5409638;26;19929;-52
2024/04/16 12:40:01;;;;;;;;;;;;;;;13.70;53.96;96827.53;5406700;26;19948;-52
2024/04/16 12:42:26;;;;;;;;;;;;;;;13.78;54.46;96824.28;5405542;26;20015;-52
2024/04/16 12:44:51;;;;;;;;;;;;;;;14.94;52.63;96812.72;5392087;26;19929;-51
2024/04/16 12:47:16;;;;;;;;;;;;;;;15.87;51.17;96809.00;5417403;26;20268;-52
2024/04/16 12:49:43;;;;;;;;;;;;;;;15.89;50.02;96808.88;5407703;26;20442;-51
2024/04/16 12:52:08;;;;;;;;;;;;;;;14.73;51.94;96803.38;5417779;26;19968;-51
2024/04/16 12:54:35;;;;;;;;;;;;;;;14.37;54.07;96811.97;5418387;26;19992;-53
2024/04/16 12:57:00;;;;;;;;;;;;;;;14.60;54.20;96815.94;5409290;26;19936;-53
2024/04/16 12:59:26;;;;;;;;;;;;;;;15.75;54.02;96814.63;5422476;26;19933;-52
2024/04/16 13:01:51;;;;;;;;;;;;;;;15.67;52.22;96798.78;5400473;26;19965;-52